createdAt,value
2023-03-20T00:01:19.934Z,23.40
2023-03-20T00:03:47.875Z,23.97
2023-03-20T00:06:17.618Z,28.73
2023-03-20T00:08:46.734Z,25.33
2023-03-20T00:11:30.410Z,25.13
2023-03-20T00:14:00.019Z,24.80
2023-03-20T00:16:33.510Z,22.73
2023-03-20T00:19:01.982Z,26.17
2023-03-20T00:21:29.832Z,24.40
2023-03-20T00:23:57.705Z,27.07
2023-03-20T00:26:29.786Z,27.37
2023-03-20T00:28:57.794Z,32.10
2023-03-20T00:31:27.792Z,38.47
2023-03-20T00:33:59.010Z,42.07
2023-03-20T00:36:27.102Z,42.53
2023-03-20T00:38:56.382Z,43.53
2023-03-20T00:41:26.949Z,47.80
2023-03-20T00:43:57.778Z,55.33
2023-03-20T00:46:26.013Z,66.57
2023-03-20T00:48:54.350Z,60.30
2023-03-20T00:51:23.490Z,45.43
2023-03-20T00:53:51.220Z,43.03
2023-03-20T00:56:32.464Z,43.23
2023-03-20T00:59:01.404Z,52.40
2023-03-20T01:01:30.164Z,50.37
2023-03-20T01:03:57.934Z,49.93
2023-03-20T01:06:28.873Z,50.70
2023-03-20T01:08:57.741Z,52.00
2023-03-20T01:11:26.028Z,52.87
2023-03-20T01:13:53.840Z,54.17
2023-03-20T01:16:24.181Z,66.37
2023-03-20T01:18:53.028Z,71.00
2023-03-20T01:21:21.799Z,69.13
2023-03-20T01:23:51.272Z,71.10
2023-03-20T01:26:28.280Z,64.70
2023-03-20T01:28:56.029Z,53.77
2023-03-20T01:31:23.798Z,61.70
2023-03-20T01:33:51.551Z,56.60
2023-03-20T01:36:22.379Z,62.93
2023-03-20T01:38:57.195Z,76.13
2023-03-20T01:41:27.095Z,58.33
2023-03-20T01:43:54.967Z,66.47
2023-03-20T01:46:26.419Z,51.23
2023-03-20T01:49:07.028Z,56.43
2023-03-20T01:51:36.190Z,50.17
2023-03-20T01:54:08.883Z,55.97
2023-03-20T01:56:41.721Z,53.37
2023-03-20T01:59:14.369Z,55.03
2023-03-20T02:01:43.571Z,42.17
2023-03-20T02:04:12.972Z,43.23
2023-03-20T02:06:41.825Z,36.67
2023-03-20T02:09:10.966Z,40.97
2023-03-20T02:11:40.664Z,39.00
2023-03-20T02:14:09.615Z,35.30
2023-03-20T02:16:37.436Z,31.07
2023-03-20T02:19:08.815Z,30.97
2023-03-20T02:22:14.220Z,28.13
2023-03-20T02:25:16.450Z,28.43
2023-03-20T02:27:59.933Z,30.53
2023-03-20T02:31:05.507Z,25.03
2023-03-20T02:34:06.256Z,25.80
2023-03-20T02:37:22.629Z,23.80
2023-03-20T02:40:01.748Z,19.03
2023-03-20T02:42:36.348Z,17.73
2023-03-20T02:45:14.614Z,15.77
2023-03-20T02:47:50.508Z,17.67
2023-03-20T02:50:28.371Z,18.00
2023-03-20T02:53:07.081Z,16.10
2023-03-20T02:55:42.544Z,18.03
2023-03-20T02:58:16.680Z,22.87
2023-03-20T03:00:51.866Z,17.43
2023-03-20T03:03:25.373Z,17.83
2023-03-20T03:05:57.084Z,21.80
2023-03-20T03:08:31.441Z,18.83
2023-03-20T03:11:04.497Z,21.40
2023-03-20T03:13:36.230Z,22.27
2023-03-20T03:16:10.308Z,24.00
2023-03-20T03:18:41.315Z,22.47
2023-03-20T03:21:11.409Z,23.20
2023-03-20T03:23:47.098Z,25.77
2023-03-20T03:26:20.818Z,21.20
2023-03-20T03:28:53.771Z,21.93
2023-03-20T03:31:23.044Z,20.13
2023-03-20T03:33:53.421Z,24.23
2023-03-20T03:36:30.241Z,22.17
2023-03-20T03:39:03.753Z,22.60
2023-03-20T03:41:35.064Z,22.50
2023-03-20T03:44:13.028Z,19.47
2023-03-20T03:46:46.366Z,22.17
2023-03-20T03:49:18.086Z,25.73
2023-03-20T03:51:50.243Z,21.23
2023-03-20T03:54:23.537Z,21.53
2023-03-20T03:56:53.162Z,23.03
2023-03-20T03:59:25.977Z,24.03
2023-03-20T04:01:55.489Z,19.70
2023-03-20T04:04:25.356Z,21.73
2023-03-20T04:06:53.190Z,22.17
2023-03-20T04:09:22.277Z,20.70
2023-03-20T04:11:53.230Z,23.17
2023-03-20T04:14:21.783Z,22.53
2023-03-20T04:16:49.567Z,20.17
2023-03-20T04:19:17.313Z,20.87
2023-03-20T04:21:45.701Z,23.97
2023-03-20T04:24:13.633Z,23.53
2023-03-20T04:26:43.332Z,20.83
2023-03-20T04:29:11.147Z,22.17
2023-03-20T04:31:38.928Z,24.73
2023-03-20T04:34:07.230Z,20.20
2023-03-20T04:36:34.967Z,21.57
2023-03-20T04:39:02.671Z,21.37
2023-03-20T04:41:30.392Z,18.77
2023-03-20T04:43:59.504Z,18.43
2023-03-20T04:46:27.348Z,19.70
2023-03-20T04:48:55.154Z,19.33
2023-03-20T04:51:22.906Z,17.87
2023-03-20T04:53:50.679Z,22.93
2023-03-20T04:56:18.499Z,22.00
2023-03-20T04:58:46.203Z,20.60
2023-03-20T05:01:15.460Z,19.57
2023-03-20T05:03:43.632Z,19.60
2023-03-20T05:06:11.423Z,18.83
2023-03-20T05:08:39.156Z,19.90
2023-03-20T05:11:07.823Z,21.63
2023-03-20T05:13:35.778Z,21.03
2023-03-20T05:16:03.497Z,17.70
2023-03-20T05:18:32.774Z,22.43
2023-03-20T05:21:01.246Z,20.17
2023-03-20T05:23:28.976Z,19.77
2023-03-20T05:25:56.733Z,24.67
2023-03-20T05:28:24.453Z,22.57
2023-03-20T05:30:52.181Z,20.20
2023-03-20T05:33:19.964Z,20.17
2023-03-20T05:35:49.110Z,18.30
2023-03-20T05:38:16.831Z,13.60
2023-03-20T05:40:44.590Z,14.57
2023-03-20T05:43:12.311Z,16.97
2023-03-20T05:45:40.058Z,16.63
2023-03-20T05:48:08.008Z,14.20
2023-03-20T05:50:35.774Z,11.00
2023-03-20T05:53:04.849Z,13.23
2023-03-20T05:55:33.199Z,12.30
2023-03-20T05:58:01.141Z,15.90
2023-03-20T06:00:28.971Z,14.20
2023-03-20T06:02:57.247Z,10.83
2023-03-20T06:05:25.040Z,11.67
2023-03-20T06:07:52.834Z,11.90
2023-03-20T06:10:22.248Z,12.20
2023-03-20T06:12:50.462Z,10.50
2023-03-20T06:15:18.389Z,10.87
2023-03-20T06:17:46.137Z,11.10
2023-03-20T06:20:14.423Z,11.03
2023-03-20T06:22:58.346Z,10.27
2023-03-20T06:25:27.517Z,11.13
2023-03-20T06:27:55.295Z,12.77
2023-03-20T06:30:23.035Z,8.73
2023-03-20T06:32:50.850Z,10.67
2023-03-20T06:35:19.180Z,10.47
2023-03-20T06:37:46.893Z,8.67
2023-03-20T06:40:14.710Z,8.87
2023-03-20T06:42:43.798Z,5.27
2023-03-20T06:45:13.298Z,11.00
2023-03-20T06:47:41.730Z,7.27
2023-03-20T06:50:10.815Z,8.17
2023-03-20T06:52:38.567Z,6.63
2023-03-20T06:55:07.117Z,8.37
2023-03-20T06:57:34.990Z,7.63
2023-03-20T07:00:05.463Z,9.20
2023-03-20T07:02:33.393Z,7.70
2023-03-20T07:05:01.179Z,7.50
2023-03-20T07:07:28.976Z,9.43
2023-03-20T07:09:56.682Z,8.93
2023-03-20T07:12:28.471Z,12.67
2023-03-20T07:14:56.918Z,9.10
2023-03-20T07:17:26.000Z,10.30
2023-03-20T07:19:53.895Z,8.20
2023-03-20T07:22:24.312Z,8.00
2023-03-20T07:24:52.182Z,4.37
2023-03-20T07:27:20.245Z,9.07
2023-03-20T07:29:47.954Z,5.70
2023-03-20T07:32:16.660Z,6.53
2023-03-20T07:34:47.533Z,5.20
2023-03-20T07:37:15.589Z,4.63
2023-03-20T07:39:43.341Z,5.13
2023-03-20T07:42:11.094Z,5.73
2023-03-20T07:44:38.823Z,4.83
2023-03-20T07:47:07.199Z,4.87
2023-03-20T07:49:35.462Z,5.63
2023-03-20T07:52:04.592Z,4.33
2023-03-20T07:54:32.321Z,7.23
2023-03-20T07:57:00.021Z,4.87
2023-03-20T07:59:27.773Z,4.63
2023-03-20T08:01:55.498Z,4.57
2023-03-20T08:04:23.392Z,6.93
2023-03-20T08:06:51.849Z,3.07
2023-03-20T08:09:21.089Z,3.47
2023-03-20T08:11:48.869Z,4.77
2023-03-20T08:14:16.741Z,2.80
2023-03-20T08:16:44.554Z,3.30
2023-03-20T08:19:12.665Z,4.90
2023-03-20T08:21:40.631Z,3.60
2023-03-20T08:24:08.996Z,3.00
2023-03-20T08:26:38.278Z,2.90
2023-03-20T08:29:06.252Z,2.60
2023-03-20T08:31:34.032Z,2.57
2023-03-20T08:34:02.110Z,2.73
2023-03-20T08:36:29.886Z,3.47
2023-03-20T08:38:57.603Z,3.77
2023-03-20T08:41:25.353Z,2.90
2023-03-20T08:43:54.417Z,3.83
2023-03-20T08:46:22.180Z,2.60
2023-03-20T08:48:49.916Z,2.60
2023-03-20T08:51:17.636Z,2.20
2023-03-20T08:53:45.405Z,2.27
2023-03-20T08:56:13.168Z,2.20
2023-03-20T08:58:40.874Z,2.70
2023-03-20T09:01:11.381Z,1.83
2023-03-20T09:03:39.188Z,1.97
2023-03-20T09:06:08.581Z,3.17
2023-03-20T09:08:36.603Z,2.30
2023-03-20T09:11:04.793Z,1.90
2023-03-20T09:13:32.679Z,2.27
2023-03-20T09:16:00.478Z,2.53
2023-03-20T09:18:29.712Z,2.40
2023-03-20T09:20:57.592Z,2.70
2023-03-20T09:23:25.408Z,3.20
2023-03-20T09:25:53.142Z,2.00
2023-03-20T09:28:20.873Z,1.67
2023-03-20T09:30:48.980Z,1.87
2023-03-20T09:33:18.515Z,2.10
2023-03-20T09:35:47.714Z,2.40
2023-03-20T09:38:15.639Z,2.30
2023-03-20T09:40:52.372Z,2.80
2023-03-20T09:43:29.965Z,2.80
2023-03-20T09:46:08.706Z,3.37
2023-03-20T09:48:46.430Z,2.70
2023-03-20T09:51:22.704Z,4.07
2023-03-20T09:53:59.218Z,3.20
2023-03-20T09:56:31.006Z,3.07
2023-03-20T09:59:00.968Z,2.60
2023-03-20T10:01:34.453Z,2.70
2023-03-20T10:04:07.971Z,4.30
2023-03-20T10:06:37.177Z,2.87
2023-03-20T10:09:16.271Z,3.13
2023-03-20T10:11:59.894Z,2.63
2023-03-20T10:14:39.165Z,3.43
2023-03-20T10:17:19.566Z,3.53
2023-03-20T10:19:53.457Z,3.83
2023-03-20T10:22:25.504Z,3.23
2023-03-20T10:24:59.109Z,4.03
2023-03-20T10:27:32.592Z,3.80
2023-03-20T10:30:14.100Z,3.43
2023-03-20T10:32:49.061Z,4.30
2023-03-20T10:35:24.843Z,4.67
2023-03-20T10:38:19.873Z,5.33
2023-03-20T10:40:48.315Z,5.33
2023-03-20T10:43:21.312Z,4.33
2023-03-20T10:45:51.737Z,5.53
2023-03-20T10:48:24.574Z,5.17
2023-03-20T10:50:56.555Z,3.63
2023-03-20T10:53:39.970Z,3.77
2023-03-20T10:56:11.825Z,5.17
2023-03-20T10:58:41.093Z,3.50
2023-03-20T11:01:09.237Z,5.47
2023-03-20T11:03:39.817Z,4.53
2023-03-20T11:06:14.802Z,5.40
2023-03-20T11:08:48.607Z,4.57
2023-03-20T11:11:23.233Z,7.50
2023-03-20T11:13:51.127Z,4.50
2023-03-20T11:16:22.128Z,5.03
2023-03-20T11:18:52.219Z,4.00
2023-03-20T11:21:23.449Z,3.97
2023-03-20T11:23:53.503Z,4.27
2023-03-20T11:26:33.653Z,3.30
2023-03-20T11:29:01.657Z,2.77
2023-03-20T11:31:35.499Z,5.43
2023-03-20T11:34:12.534Z,3.67
2023-03-20T11:36:41.355Z,3.93
2023-03-20T11:39:15.002Z,4.07
2023-03-20T11:41:47.255Z,4.40
2023-03-20T11:44:24.840Z,4.40
2023-03-20T11:46:57.846Z,7.27
2023-03-20T11:49:27.709Z,5.57
2023-03-20T11:52:00.805Z,8.10
2023-03-20T11:54:31.355Z,7.00
2023-03-20T11:57:01.333Z,7.87
2023-03-20T11:59:33.138Z,7.73
2023-03-20T12:02:03.361Z,8.10
2023-03-20T12:04:33.396Z,7.30
2023-03-20T12:07:11.204Z,7.40
2023-03-20T12:09:45.669Z,5.27
2023-03-20T12:12:22.950Z,5.57
2023-03-20T12:14:58.028Z,6.37
2023-03-20T12:17:36.395Z,6.27
2023-03-20T12:20:13.077Z,5.40
2023-03-20T12:22:51.043Z,5.57
2023-03-20T12:25:24.126Z,7.23
2023-03-20T12:28:03.410Z,7.37
2023-03-20T12:30:37.479Z,5.50
2023-03-20T12:33:12.309Z,6.40
2023-03-20T12:35:45.637Z,8.07
2023-03-20T12:38:24.293Z,6.03
2023-03-20T12:41:00.567Z,5.73
2023-03-20T12:43:35.981Z,7.80
2023-03-20T12:46:12.393Z,8.80
2023-03-20T12:48:56.301Z,7.10
2023-03-20T12:51:36.816Z,6.30
2023-03-20T12:54:18.863Z,6.57
2023-03-20T12:57:03.062Z,6.60
2023-03-20T12:59:39.950Z,5.67
2023-03-20T13:02:20.670Z,8.40
2023-03-20T13:05:01.931Z,6.13
2023-03-20T13:07:45.936Z,7.00
2023-03-20T13:10:20.711Z,8.70
2023-03-20T13:13:02.989Z,10.33
2023-03-20T13:15:42.232Z,6.47
2023-03-20T13:18:17.606Z,7.03
2023-03-20T13:20:52.139Z,8.50
2023-03-20T13:23:24.499Z,7.53
2023-03-20T13:26:09.694Z,8.60
2023-03-20T13:28:46.990Z,9.77
2023-03-20T13:31:26.911Z,7.40
2023-03-20T13:34:01.648Z,10.27
2023-03-20T13:36:45.431Z,6.90
2023-03-20T13:39:17.503Z,7.70
2023-03-20T13:41:47.691Z,7.87
2023-03-20T13:44:20.971Z,6.17
2023-03-20T13:46:52.816Z,8.13
2023-03-20T13:49:27.056Z,7.40
2023-03-20T13:52:01.413Z,8.47
2023-03-20T13:54:42.924Z,7.90
2023-03-20T13:57:23.599Z,7.07
2023-03-20T14:00:01.955Z,7.33
2023-03-20T14:02:36.721Z,9.17
2023-03-20T14:05:11.526Z,8.03
2023-03-20T14:07:44.109Z,5.93
2023-03-20T14:10:38.200Z,7.23
2023-03-20T14:13:12.889Z,9.00
2023-03-20T14:15:50.109Z,5.37
2023-03-20T14:18:19.526Z,5.53
2023-03-20T14:20:55.401Z,7.07
2023-03-20T14:23:34.167Z,7.40
2023-03-20T14:26:05.227Z,11.67
2023-03-20T14:28:45.674Z,6.80
2023-03-20T14:31:23.927Z,5.57
2023-03-20T14:34:00.720Z,6.90
2023-03-20T14:36:43.592Z,6.67
2023-03-20T14:39:30.222Z,5.97
2023-03-20T14:42:05.312Z,6.37
2023-03-20T14:44:51.511Z,5.20
2023-03-20T14:47:30.280Z,6.90
2023-03-20T14:50:04.555Z,8.17
2023-03-20T14:52:43.888Z,6.67
2023-03-20T14:55:32.199Z,5.10
2023-03-20T14:58:04.830Z,7.77
2023-03-20T15:00:37.083Z,6.67
2023-03-20T15:03:10.259Z,6.80
2023-03-20T15:05:40.043Z,8.23
2023-03-20T15:08:11.161Z,6.23
2023-03-20T15:10:47.592Z,10.67
2023-03-20T15:13:16.594Z,8.57
2023-03-20T15:15:55.143Z,5.57
2023-03-20T15:18:26.500Z,11.20
2023-03-20T15:20:56.845Z,9.33
2023-03-20T15:23:26.037Z,11.67
2023-03-20T15:25:54.158Z,7.10
2023-03-20T15:28:25.036Z,9.30
2023-03-20T15:30:54.841Z,9.23
2023-03-20T15:33:28.031Z,6.57
2023-03-20T15:35:56.204Z,6.27
2023-03-20T15:38:30.969Z,5.87
2023-03-20T15:40:58.701Z,6.57
2023-03-20T15:43:27.947Z,11.00
2023-03-20T15:46:14.260Z,5.43
2023-03-20T15:48:49.936Z,8.90
2023-03-20T15:51:18.974Z,5.17
2023-03-20T15:53:49.463Z,7.37
2023-03-20T15:56:20.012Z,9.43
2023-03-20T15:58:52.257Z,6.40
2023-03-20T16:01:22.260Z,7.10
2023-03-20T16:03:52.759Z,8.63
2023-03-20T16:06:22.708Z,9.37
2023-03-20T16:08:59.450Z,8.73
2023-03-20T16:11:37.669Z,8.00
2023-03-20T16:14:07.076Z,11.23
2023-03-20T16:16:37.698Z,7.03
2023-03-20T16:19:09.726Z,8.20
2023-03-20T16:21:40.786Z,6.33
2023-03-20T16:24:15.695Z,6.17
2023-03-20T16:26:46.842Z,10.40
2023-03-20T16:29:15.906Z,9.73
2023-03-20T16:31:49.567Z,8.33
2023-03-20T16:34:22.762Z,12.03
2023-03-20T16:36:54.825Z,10.90
2023-03-20T16:39:26.009Z,9.60
2023-03-20T16:42:11.877Z,8.77
2023-03-20T16:44:42.734Z,8.57
2023-03-20T16:47:18.373Z,13.37
2023-03-20T16:50:10.504Z,8.17
2023-03-20T16:52:41.142Z,4.60
2023-03-20T16:55:16.999Z,7.17
2023-03-20T16:57:49.107Z,8.67
2023-03-20T17:00:23.821Z,8.33
2023-03-20T17:02:53.714Z,11.57
2023-03-20T17:05:23.343Z,9.03
2023-03-20T17:07:52.193Z,9.97
2023-03-20T17:10:24.166Z,11.83
2023-03-20T17:12:52.889Z,7.63
2023-03-20T17:15:23.191Z,8.43
2023-03-20T17:17:51.006Z,12.83
2023-03-20T17:20:21.328Z,11.60
2023-03-20T17:22:51.165Z,7.13
2023-03-20T17:25:19.101Z,8.90
2023-03-20T17:27:46.818Z,9.80
2023-03-20T17:30:18.597Z,9.87
2023-03-20T17:32:46.421Z,10.50
2023-03-20T17:35:14.682Z,7.90
2023-03-20T17:37:42.742Z,12.17
2023-03-20T17:40:18.741Z,11.50
2023-03-20T17:42:46.903Z,12.87
2023-03-20T17:45:15.649Z,10.63
2023-03-20T17:47:44.926Z,10.93
2023-03-20T17:50:19.157Z,14.47
2023-03-20T17:52:47.125Z,9.53
2023-03-20T17:55:16.347Z,14.17
2023-03-20T17:57:44.389Z,12.00
2023-03-20T18:00:18.012Z,13.17
2023-03-20T18:02:45.860Z,12.17
2023-03-20T18:05:13.678Z,11.30
2023-03-20T18:07:41.781Z,9.63
2023-03-20T18:10:21.867Z,14.07
2023-03-20T18:12:49.617Z,12.20
2023-03-20T18:15:17.395Z,11.00
2023-03-20T18:17:46.609Z,10.17
2023-03-20T18:20:25.258Z,16.73
2023-03-20T18:22:53.115Z,15.73
2023-03-20T18:25:23.290Z,12.80
2023-03-20T18:27:51.180Z,10.00
2023-03-20T18:30:21.277Z,10.50
2023-03-20T18:32:50.765Z,13.70
2023-03-20T18:35:18.689Z,11.63
2023-03-20T18:37:46.414Z,12.80
2023-03-20T18:40:19.238Z,13.43
2023-03-20T18:42:48.766Z,8.83
2023-03-20T18:45:16.967Z,14.77
2023-03-20T18:47:45.432Z,13.87
2023-03-20T18:50:24.765Z,11.23
2023-03-20T18:52:52.880Z,11.47
2023-03-20T18:55:21.626Z,12.20
2023-03-20T18:57:50.829Z,12.47
2023-03-20T19:00:23.117Z,13.53
2023-03-20T19:02:52.068Z,12.60
2023-03-20T19:05:20.263Z,14.73
2023-03-20T19:07:48.943Z,13.27
2023-03-20T19:10:27.951Z,13.20
2023-03-20T19:12:57.963Z,12.13
2023-03-20T19:15:27.790Z,12.90
2023-03-20T19:17:55.867Z,13.20
2023-03-20T19:20:34.248Z,11.90
2023-03-20T19:23:03.590Z,14.13
2023-03-20T19:25:31.742Z,12.83
2023-03-20T19:28:01.781Z,14.93
2023-03-20T19:30:32.151Z,13.83
2023-03-20T19:33:00.558Z,16.27
2023-03-20T19:35:54.388Z,16.83
2023-03-20T19:38:18.832Z,14.43
2023-03-20T19:40:48.861Z,12.73
2023-03-20T19:43:17.988Z,15.63
2023-03-20T19:45:46.366Z,17.93
2023-03-20T19:48:16.587Z,14.70
2023-03-20T19:50:46.690Z,13.80
2023-03-20T19:53:16.534Z,17.17
2023-03-20T19:55:45.655Z,19.17
2023-03-20T19:58:13.580Z,17.67
2023-03-20T20:01:00.815Z,16.33
2023-03-20T20:03:28.868Z,12.40
2023-03-20T20:05:56.715Z,16.07
2023-03-20T20:08:42.137Z,16.47
2023-03-20T20:11:14.473Z,11.60
2023-03-20T20:14:03.776Z,17.67
2023-03-20T20:16:31.959Z,18.27
2023-03-20T20:18:59.746Z,16.03
2023-03-20T20:24:16.249Z,17.33
2023-03-20T20:26:53.677Z,17.20
2023-03-20T20:29:24.483Z,19.03
2023-03-20T20:31:53.763Z,20.17
2023-03-20T20:39:58.068Z,20.73
2023-03-20T20:42:26.072Z,19.63
2023-03-20T20:44:53.789Z,19.53
2023-03-20T20:47:22.900Z,19.77
2023-03-20T20:49:50.629Z,19.60
2023-03-20T20:52:18.578Z,15.30
2023-03-20T20:54:46.427Z,18.10
2023-03-20T20:57:14.355Z,21.70
2023-03-20T20:59:42.442Z,16.47
2023-03-20T21:02:11.975Z,17.07
2023-03-20T21:04:42.095Z,17.80
2023-03-20T21:07:12.216Z,18.80
2023-03-20T21:09:40.796Z,20.53
2023-03-20T21:12:10.354Z,17.90
2023-03-20T21:14:38.771Z,18.90
2023-03-20T21:17:07.673Z,21.63
2023-03-20T21:19:38.158Z,19.47
2023-03-20T21:22:09.093Z,19.23
2023-03-20T21:24:37.434Z,21.50
2023-03-20T21:27:08.010Z,27.00
2023-03-20T21:29:36.011Z,19.17
2023-03-20T21:32:03.838Z,21.40
2023-03-20T21:34:31.853Z,18.43
2023-03-20T21:37:15.265Z,20.17
2023-03-20T21:39:52.269Z,21.50
2023-03-20T21:42:20.628Z,16.70
2023-03-20T21:50:49.444Z,19.43
2023-03-20T21:54:04.061Z,22.47
2023-03-20T22:02:12.335Z,21.47
2023-03-20T22:07:52.015Z,20.43
2023-03-20T22:10:45.346Z,23.03
2023-03-20T22:16:17.160Z,18.00
2023-03-20T22:30:18.827Z,21.23
2023-03-20T22:38:55.138Z,18.90
2023-03-20T22:41:49.060Z,20.37
2023-03-20T22:46:45.849Z,20.10
2023-03-20T22:49:13.100Z,18.50
2023-03-20T22:51:47.836Z,20.07
2023-03-20T22:54:25.382Z,17.67
2023-03-20T22:56:53.109Z,20.33
2023-03-20T22:59:20.824Z,19.87
2023-03-20T23:01:49.960Z,24.60
2023-03-20T23:04:17.701Z,18.57
2023-03-20T23:06:45.503Z,18.70
2023-03-20T23:09:15.829Z,20.47
2023-03-20T23:11:44.141Z,21.47
2023-03-20T23:14:20.463Z,17.70
2023-03-20T23:16:51.447Z,18.83
2023-03-20T23:19:19.355Z,15.73
2023-03-20T23:21:47.075Z,15.17
2023-03-20T23:24:14.831Z,18.70
2023-03-20T23:26:42.573Z,17.90
2023-03-20T23:29:10.302Z,18.57
2023-03-20T23:31:38.158Z,16.73
2023-03-20T23:34:07.362Z,21.83
2023-03-20T23:36:37.298Z,19.17
2023-03-20T23:39:05.953Z,18.60
2023-03-20T23:42:04.713Z,16.87
2023-03-20T23:44:21.687Z,15.97
2023-03-20T23:46:49.459Z,15.33
2023-03-20T23:49:18.821Z,16.17
2023-03-20T23:51:47.037Z,17.97
2023-03-20T23:54:14.952Z,16.63
2023-03-20T23:56:42.734Z,17.80
2023-03-20T23:59:21.114Z,16.77
